createdAt,value
2022-11-17T20:37:09.205Z,26.13
2022-11-17T20:38:14.668Z,21.60
2022-11-17T20:39:25.437Z,22.17
2022-11-17T20:40:27.926Z,26.88
2022-11-17T20:41:30.705Z,24.30
2022-11-17T20:42:38.880Z,31.33
2022-11-17T20:43:41.116Z,49.30
2022-11-17T20:44:44.280Z,37.70
2022-11-17T20:45:46.419Z,30.08
2022-11-17T20:46:48.712Z,23.30
2022-11-17T20:47:50.845Z,17.35
2022-11-17T20:48:53.309Z,15.57
2022-11-17T20:49:55.432Z,19.50
2022-11-17T20:50:58.209Z,39.08
2022-11-17T20:52:00.449Z,42.20
2022-11-17T20:53:02.527Z,33.45
2022-11-17T20:54:04.753Z,32.75
2022-11-17T20:55:11.435Z,32.03
2022-11-17T20:56:16.228Z,31.05
2022-11-17T20:57:22.143Z,34.58
2022-11-17T20:58:25.633Z,30.80
2022-11-17T20:59:27.821Z,32.22
2022-11-17T21:00:39.315Z,35.55
2022-11-17T21:01:41.672Z,31.45
2022-11-17T21:02:51.257Z,31.20
2022-11-17T21:03:53.617Z,27.83
2022-11-17T21:05:00.096Z,29.33
2022-11-17T21:06:03.359Z,23.97
2022-11-17T21:07:05.673Z,28.48
2022-11-17T21:08:08.421Z,27.92
2022-11-17T21:09:12.458Z,28.67
2022-11-17T21:10:15.607Z,26.77
2022-11-17T21:11:38.425Z,33.90
2022-11-17T21:12:47.689Z,31.83
2022-11-17T21:13:50.053Z,35.55
2022-11-17T21:14:52.210Z,30.20
2022-11-17T21:16:14.208Z,28.52
2022-11-17T21:17:35.217Z,36.83
2022-11-17T21:18:46.466Z,33.63
2022-11-17T21:19:48.664Z,34.28
2022-11-17T21:20:51.576Z,33.20
2022-11-17T21:21:55.153Z,23.35
2022-11-17T21:22:58.167Z,25.23
2022-11-17T21:24:01.421Z,30.85
2022-11-17T21:25:05.108Z,19.88
2022-11-17T21:26:20.738Z,18.83
2022-11-17T21:27:23.469Z,20.98
2022-11-17T21:28:26.121Z,16.30
2022-11-17T21:29:38.798Z,21.23
2022-11-17T21:30:48.002Z,25.55
2022-11-17T21:31:50.298Z,30.50
2022-11-17T21:32:52.573Z,22.85
2022-11-17T21:33:55.488Z,22.30
2022-11-17T21:35:01.577Z,23.20
2022-11-17T21:36:12.604Z,23.77
2022-11-17T21:37:14.830Z,26.38
2022-11-17T21:38:17.000Z,19.40
2022-11-17T21:39:19.882Z,26.47
2022-11-17T21:40:24.939Z,30.25
2022-11-17T21:41:29.939Z,26.25
2022-11-17T21:42:39.889Z,24.98
2022-11-17T21:43:47.748Z,30.42
2022-11-17T21:44:50.155Z,28.13
2022-11-17T21:45:53.329Z,26.85
2022-11-17T21:46:56.803Z,23.13
2022-11-17T21:48:02.921Z,23.80
2022-11-17T21:49:15.851Z,20.58
2022-11-17T21:50:19.256Z,22.83
2022-11-17T21:51:34.227Z,22.08
2022-11-17T21:52:37.750Z,23.25
2022-11-17T21:53:41.002Z,26.58
2022-11-17T21:54:44.036Z,27.13
2022-11-17T21:55:48.239Z,27.13
2022-11-17T21:56:52.284Z,23.50
2022-11-17T21:57:58.064Z,26.73
2022-11-17T21:59:05.134Z,22.75
2022-11-17T22:00:09.296Z,29.08
2022-11-17T22:01:15.655Z,23.73
2022-11-17T22:02:19.840Z,23.77
2022-11-17T22:03:26.215Z,23.27
2022-11-17T22:04:28.678Z,19.35
2022-11-17T22:05:30.916Z,23.30
2022-11-17T22:06:33.136Z,20.95
2022-11-17T22:07:35.416Z,21.25
2022-11-17T22:08:41.071Z,25.08
2022-11-17T22:09:50.350Z,23.23
2022-11-17T22:10:52.564Z,23.85
2022-11-17T22:11:55.817Z,21.87
2022-11-17T22:13:01.427Z,24.83
2022-11-17T22:14:36.038Z,23.30
2022-11-17T22:15:38.183Z,20.88
2022-11-17T22:16:52.238Z,15.65
2022-11-17T22:18:00.329Z,21.08
2022-11-17T22:19:03.269Z,16.98
2022-11-17T22:20:06.028Z,18.80
2022-11-17T22:21:14.493Z,21.95
2022-11-17T22:22:16.846Z,17.73
2022-11-17T22:23:18.975Z,22.77
2022-11-17T22:24:21.348Z,20.40
2022-11-17T22:26:51.848Z,17.17
2022-11-17T22:27:56.760Z,19.45
2022-11-17T22:29:03.288Z,17.15
2022-11-17T22:30:05.971Z,20.80
2022-11-17T22:31:12.752Z,21.38
2022-11-17T22:32:14.894Z,16.38
2022-11-17T22:33:17.014Z,20.40
2022-11-17T22:34:20.338Z,16.83
2022-11-17T22:35:24.239Z,19.27
2022-11-17T22:36:26.418Z,19.20
2022-11-17T22:37:28.717Z,21.52
2022-11-17T22:38:31.993Z,18.17
2022-11-17T22:39:38.563Z,17.40
2022-11-17T22:40:41.338Z,16.58
2022-11-17T22:41:50.917Z,19.65
2022-11-17T22:42:53.262Z,17.50
2022-11-17T22:43:56.927Z,26.65
2022-11-17T22:44:59.021Z,48.67
2022-11-17T22:46:03.952Z,20.60
2022-11-17T22:47:06.955Z,18.27
2022-11-17T22:48:09.410Z,18.50
2022-11-17T22:49:12.485Z,26.85
2022-11-17T22:50:14.584Z,26.77
2022-11-17T22:51:35.396Z,22.75
2022-11-17T22:52:40.481Z,23.98
2022-11-17T22:53:42.638Z,28.98
2022-11-17T22:54:45.814Z,19.25
2022-11-17T22:55:48.004Z,18.10
2022-11-17T22:56:50.155Z,19.90
2022-11-17T22:57:52.373Z,17.30
2022-11-17T22:58:59.511Z,20.80
2022-11-17T23:00:02.184Z,25.13
2022-11-17T23:01:08.220Z,23.63
2022-11-17T23:02:17.259Z,22.83
2022-11-17T23:03:19.378Z,23.00
2022-11-17T23:04:23.122Z,23.85
2022-11-17T23:05:25.867Z,18.83
2022-11-17T23:06:30.062Z,21.20
2022-11-17T23:07:34.798Z,14.68
2022-11-17T23:08:37.348Z,16.42
2022-11-17T23:09:39.591Z,12.80
2022-11-17T23:10:41.764Z,14.70
2022-11-17T23:11:46.630Z,12.63
2022-11-17T23:12:49.957Z,14.00
2022-11-17T23:13:52.599Z,12.90
2022-11-17T23:14:54.736Z,13.82
2022-11-17T23:16:04.960Z,11.13
2022-11-17T23:17:13.376Z,12.17
2022-11-17T23:18:15.635Z,15.75
2022-11-17T23:19:18.022Z,16.27
2022-11-17T23:20:28.217Z,14.88
2022-11-17T23:21:30.350Z,13.05
2022-11-17T23:22:38.444Z,13.48
2022-11-17T23:23:41.126Z,12.93
2022-11-17T23:24:49.301Z,15.55
2022-11-17T23:25:51.394Z,14.05
2022-11-17T23:26:53.454Z,16.20
2022-11-17T23:27:55.539Z,19.50
2022-11-17T23:28:58.322Z,19.50
2022-11-17T23:30:02.271Z,18.60
2022-11-17T23:31:13.897Z,15.50
2022-11-17T23:32:16.013Z,14.50
2022-11-17T23:33:18.116Z,17.90
2022-11-17T23:34:20.578Z,13.77
2022-11-17T23:35:27.056Z,13.07
2022-11-17T23:36:29.293Z,16.33
2022-11-17T23:37:32.644Z,20.55
2022-11-17T23:38:39.252Z,18.90
2022-11-17T23:39:41.400Z,17.88
2022-11-17T23:40:46.735Z,20.70
2022-11-17T23:41:48.988Z,18.05
2022-11-17T23:42:53.795Z,18.38
2022-11-17T23:43:56.403Z,18.88
2022-11-17T23:45:07.603Z,17.95
2022-11-17T23:46:20.904Z,20.25
2022-11-17T23:47:23.778Z,18.40
2022-11-17T23:48:27.588Z,19.33
2022-11-17T23:49:31.831Z,16.77
2022-11-17T23:50:38.703Z,18.90
2022-11-17T23:51:43.068Z,18.77
2022-11-17T23:52:46.091Z,16.40
2022-11-17T23:53:51.481Z,20.33
2022-11-17T23:54:53.664Z,19.33
2022-11-17T23:56:02.515Z,14.70
2022-11-17T23:57:04.731Z,17.63
2022-11-17T23:58:06.839Z,17.77
2022-11-17T23:59:09.281Z,16.73
